Time;durP1;ratioP1;P1;durP2;ratioP2;P2;SDS_P1;SDS_P2;PMS_P1;PMS_P2;Temp;Humidity;BMP_temperature;BMP_pressure;BME280_temperature;BME280_humidity;BME280_pressure;Samples;Min_cycle;Max_cycle;Signal;HPM_P1;HPM_P2
2023/01/24 00:01:24;;;;;;;64.90;31.60;;;;;;;1.19;91.63;100611.46;91135;1279;22114;-76
2023/01/24 00:03:26;;;;;;;62.70;32.40;;;;;;;1.19;91.67;100609.57;91043;1278;99495;-76
2023/01/24 00:05:27;;;;;;;;;;;;;;;1.19;91.93;100611.98;91064;1278;98463;-77
2023/01/24 00:07:28;;;;;;;57.20;30.20;;;;;;;1.18;91.78;100613.00;91176;1277;22245;-79
2023/01/24 00:09:29;;;;;;;70.20;31.30;;;;;;;1.18;91.70;100608.85;91118;1276;98367;-77
2023/01/24 00:11:30;;;;;;;67.50;34.50;;;;;;;1.18;91.94;100607.64;90977;1277;98547;-76
2023/01/24 00:13:32;;;;;;;68.70;34.70;;;;;;;1.18;91.75;100598.29;91193;1275;23111;-76
2023/01/24 00:15:33;;;;;;;59.20;32.60;;;;;;;1.17;91.85;100599.84;91130;1271;98717;-76
2023/01/24 00:17:35;;;;;;;54.90;28.30;;;;;;;1.18;91.78;100604.17;91088;1275;98350;-76
2023/01/24 00:19:36;;;;;;;67.30;33.30;;;;;;;1.18;91.72;100601.40;91135;1268;22436;-77
2023/01/24 00:21:37;;;;;;;56.90;32.10;;;;;;;1.19;91.88;100600.36;91079;1276;98610;-76
2023/01/24 00:23:40;;;;;;;54.30;29.50;;;;;;;1.18;91.78;100600.37;91037;1275;98264;-76
2023/01/24 00:25:41;;;;;;;61.80;33.70;;;;;;;1.19;91.80;100605.06;91173;1279;22267;-76
2023/01/24 00:27:42;;;;;;;59.30;28.60;;;;;;;1.19;91.75;100601.77;90999;1278;98231;-75
2023/01/24 00:29:43;;;;;;;;;;;;;;;1.20;91.72;100605.58;91078;1275;98335;-75
2023/01/24 00:31:44;;;;;;;53.70;29.70;;;;;;;1.19;91.84;100612.16;91136;1275;22422;-78
2023/01/24 00:33:45;;;;;;;60.60;34.00;;;;;;;1.18;91.98;100613.87;91006;1280;99332;-75
2023/01/24 00:35:48;;;;;;;59.90;30.70;;;;;;;1.17;91.84;100611.95;90986;1275;99602;-75
2023/01/24 00:37:49;;;;;;;60.90;31.10;;;;;;;1.18;91.52;100616.29;91152;1275;22256;-76
2023/01/24 00:39:50;;;;;;;54.60;28.80;;;;;;;1.19;91.54;100621.15;91018;1270;98301;-76
2023/01/24 00:41:52;;;;;;;59.00;30.80;;;;;;;1.19;91.66;100618.73;90974;1276;99560;-76
2023/01/24 00:43:53;;;;;;;65.60;34.90;;;;;;;1.18;91.80;100620.11;91123;1276;22412;-76
2023/01/24 00:45:54;;;;;;;58.90;32.80;;;;;;;1.19;91.84;100618.58;91007;1278;99394;-75
2023/01/24 00:47:55;;;;;;;53.90;29.20;;;;;;;1.19;91.88;100615.61;90989;1272;98076;-76
2023/01/24 00:49:56;;;;;;;61.40;32.30;;;;;;;1.20;91.59;100616.16;91071;1278;22142;-75
2023/01/24 00:51:57;;;;;;;42.60;23.20;;;;;;;1.20;91.96;100620.66;91093;1278;98211;-76
2023/01/24 00:53:59;;;;;;;54.80;27.30;;;;;;;1.20;91.60;100619.95;90968;1278;99455;-75
2023/01/24 00:56:00;;;;;;;66.40;32.90;;;;;;;1.19;91.83;100622.20;91175;1266;22380;-75
2023/01/24 00:58:01;;;;;;;58.80;31.40;;;;;;;1.19;91.89;100622.38;91103;1275;99336;-74
2023/01/24 01:00:03;;;;;;;65.40;32.00;;;;;;;1.20;91.75;100622.38;90982;1278;22342;-75
2023/01/24 01:02:04;;;;;;;;;;;;;;;1.20;91.80;100620.48;91183;1273;22490;-77
2023/01/24 01:04:05;;;;;;;52.20;29.30;;;;;;;1.20;91.45;100621.16;91026;1275;85741;-75
2023/01/24 01:06:11;;;;;;;52.30;29.00;;;;;;;1.20;91.61;100626.54;91150;1272;22236;-74
2023/01/24 01:08:12;;;;;;;62.30;32.70;;;;;;;1.18;91.68;100622.70;91118;1275;22442;-75
2023/01/24 01:10:14;;;;;;;61.70;30.20;;;;;;;1.19;91.83;100627.73;90948;1275;100370;-77
2023/01/24 01:12:15;;;;;;;64.60;31.10;;;;;;;1.20;91.86;100625.33;91123;1269;23997;-76
2023/01/24 01:14:16;;;;;;;62.70;32.20;;;;;;;1.19;91.66;100623.23;91093;1275;22386;-75
2023/01/24 01:16:19;;;;;;;66.40;32.50;;;;;;;1.19;91.58;100623.41;91001;1276;100247;-75
2023/01/24 01:18:20;;;;;;;58.10;30.60;;;;;;;1.19;91.87;100622.71;91119;1276;22313;-74
2023/01/24 01:20:21;;;;;;;57.10;32.10;;;;;;;1.20;91.97;100625.16;91036;1277;22260;-75
2023/01/24 01:22:22;;;;;;;68.80;32.30;;;;;;;1.20;91.92;100627.41;90902;1278;100231;-74
2023/01/24 01:24:23;;;;;;;64.80;31.60;;;;;;;1.20;91.85;100632.78;91155;1275;22262;-75
2023/01/24 01:26:24;;;;;;;64.40;32.10;;;;;;;1.21;91.78;100633.83;91161;1277;22171;-74
2023/01/24 01:28:25;;;;;;;58.90;33.10;;;;;;;1.21;91.81;100630.55;90944;1279;99482;-76
2023/01/24 01:30:26;;;;;;;58.30;31.30;;;;;;;1.21;91.77;100628.96;91146;1275;22296;-75
2023/01/24 01:32:27;;;;;;;66.50;32.20;;;;;;;1.21;91.90;100628.63;91130;1276;23358;-74
2023/01/24 01:34:28;;;;;;;59.20;33.80;;;;;;;1.21;91.61;100631.92;90985;1276;99502;-75
2023/01/24 01:36:29;;;;;;;56.30;30.00;;;;;;;1.21;91.79;100634.00;91017;1278;22191;-74
2023/01/24 01:38:30;;;;;;;62.00;31.60;;;;;;;1.21;91.64;100633.30;91098;1276;22324;-75
2023/01/24 01:40:31;;;;;;;;;;;;;;;1.21;91.86;100633.99;90942;1278;100057;-76
2023/01/24 01:42:49;;;;;;;64.70;27.40;;;;;;;1.21;91.80;100637.12;91066;1276;22984;-74
2023/01/24 01:44:53;;;;;;;50.60;25.20;;;;;;;1.21;91.79;100637.13;91133;1276;22377;-75
2023/01/24 01:46:54;;;;;;;54.40;26.90;;;;;;;1.22;91.51;100640.08;90970;1276;99554;-75
2023/01/24 01:49:01;;;;;;;49.90;27.40;;;;;;;1.23;91.74;100634.89;91155;1276;22328;-74
2023/01/24 01:51:05;;;;;;;61.00;29.80;;;;;;;1.23;91.84;100637.66;91084;1275;99504;-76
2023/01/24 01:53:06;;;;;;;62.00;31.10;;;;;;;1.24;91.60;100643.39;91084;1270;98302;-74
2023/01/24 01:55:15;;;;;;;67.20;31.60;;;;;;;1.25;91.95;100643.24;91149;1276;23026;-75
2023/01/24 01:57:25;;;;;;;57.70;29.70;;;;;;;1.26;91.74;100643.08;90979;1277;99517;-74
2023/01/24 01:59:38;;;;;;;55.10;27.60;;;;;;;1.25;91.85;100642.55;90972;1273;99569;-74
2023/01/24 02:01:41;;;;;;;53.30;26.90;;;;;;;1.26;91.95;100643.25;91141;1278;22330;-75
2023/01/24 02:03:49;;;;;;;65.10;32.40;;;;;;;1.25;91.75;100646.20;91117;1275;98202;-75
2023/01/24 02:05:50;;;;;;;58.20;31.20;;;;;;;1.25;91.65;100644.64;91088;1276;98158;-75
2023/01/24 02:08:02;;;;;;;72.80;34.00;;;;;;;1.25;91.60;100642.22;91086;1275;22446;-75
2023/01/24 02:10:04;;;;;;;76.30;33.80;;;;;;;1.25;91.78;100642.02;90976;1281;99567;-74
2023/01/24 02:12:26;;;;;;;58.60;32.60;;;;;;;1.25;91.83;100643.94;91033;1279;22257;-74
2023/01/24 02:16:49;;;;;;;75.70;31.90;;;;;;;1.24;91.72;100637.86;91002;1274;99456;-75
2023/01/24 02:18:50;;;;;;;66.10;32.20;;;;;;;1.24;91.84;100636.13;91161;1276;22109;-76
2023/01/24 02:20:51;;;;;;;73.20;33.40;;;;;;;1.24;91.66;100631.27;91174;1275;22839;-75
2023/01/24 02:23:15;;;;;;;62.70;31.30;;;;;;;1.24;91.69;100635.61;91045;1273;99416;-76
2023/01/24 02:25:26;;;;;;;65.20;32.80;;;;;;;1.23;91.82;100635.93;91092;1276;22543;-78
2023/01/24 02:27:27;;;;;;;62.90;30.90;;;;;;;1.22;91.88;100633.65;91035;1271;98506;-75
2023/01/24 02:29:29;;;;;;;59.70;28.30;;;;;;;1.22;91.68;100631.73;91112;1270;98171;-76
2023/01/24 02:32:01;;;;;;;58.20;28.80;;;;;;;1.22;91.56;100634.17;91142;1275;22377;-75
2023/01/24 02:34:01;;;;;;;47.60;26.40;;;;;;;1.21;91.71;100629.16;91106;1276;98554;-75
2023/01/24 02:36:22;;;;;;;52.00;27.30;;;;;;;1.21;91.69;100634.17;91110;1275;22265;-76
2023/01/24 02:38:28;;;;;;;61.30;28.60;;;;;;;1.22;91.63;100631.24;91175;1276;23363;-75
2023/01/24 02:40:31;;;;;;;62.30;31.50;;;;;;;1.21;91.69;100625.16;90974;1276;98686;-76
2023/01/24 02:42:38;;;;;;;55.60;27.60;;;;;;;1.21;91.70;100622.56;91127;1275;22259;-75
2023/01/24 02:44:53;;;;;;;56.10;28.50;;;;;;;1.21;91.64;100624.98;91039;1276;23380;-75
2023/01/24 02:46:55;;;;;;;48.60;26.70;;;;;;;1.21;91.95;100627.08;91014;1275;99454;-75
2023/01/24 02:48:56;;;;;;;53.70;30.10;;;;;;;1.21;91.72;100628.45;91045;1278;22150;-75
2023/01/24 02:53:31;;;;;;;60.00;30.30;;;;;;;1.19;91.81;100630.85;91106;1273;99988;-75
2023/01/24 02:55:33;;;;;;;51.50;27.30;;;;;;;1.19;92.01;100631.37;91162;1279;22137;-75
2023/01/24 02:59:54;;;;;;;57.30;28.30;;;;;;;1.19;91.83;100635.35;91058;1273;98523;-74
2023/01/24 03:01:55;;;;;;;58.70;29.30;;;;;;;1.19;91.71;100637.95;91158;1267;22365;-74
2023/01/24 03:03:57;;;;;;;65.80;31.00;;;;;;;1.19;91.63;100640.37;91043;1276;99570;-75
2023/01/24 03:05:58;;;;;;;58.90;27.70;;;;;;;1.18;91.90;100640.02;91029;1276;98139;-74
2023/01/24 03:08:01;;;;;;;60.50;27.00;;;;;;;1.18;91.86;100641.39;91080;1277;22433;-73
2023/01/24 03:10:03;;;;;;;44.70;24.10;;;;;;;1.18;92.16;100640.70;90941;1276;100286;-76
2023/01/24 03:35:23;;;;;;;34.70;20.60;;;;;;;1.19;92.02;100655.80;91064;1267;98362;-74
2023/01/24 03:39:53;;;;;;;40.10;19.10;;;;;;;1.21;91.96;100654.77;91117;1272;98808;-74
2023/01/24 03:41:54;;;;;;;41.40;20.30;;;;;;;1.21;91.95;100650.45;91056;1275;98309;-73
2023/01/24 03:43:56;;;;;;;38.90;19.70;;;;;;;1.22;91.85;100653.74;91114;1277;22442;-76
2023/01/24 03:45:57;;;;;;;31.50;17.90;;;;;;;1.22;91.82;100648.20;91065;1276;99534;-74
2023/01/24 03:48:26;;;;;;;31.00;17.90;;;;;;;1.23;91.96;100653.06;91058;1276;99194;-73
2023/01/24 03:52:47;;;;;;;36.10;19.80;;;;;;;1.24;92.09;100648.42;91033;1276;99641;-73
2023/01/24 03:54:48;;;;;;;32.60;18.10;;;;;;;1.24;92.14;100649.63;91026;1278;22386;-75
2023/01/24 03:56:50;;;;;;;34.00;19.70;;;;;;;1.24;91.97;100652.92;91058;1280;22407;-73
2023/01/24 03:58:53;;;;;;;35.90;19.80;;;;;;;1.24;92.18;100650.16;90982;1276;98370;-74
2023/01/24 04:00:54;;;;;;;30.60;17.90;;;;;;;1.25;91.97;100650.68;91082;1276;22106;-74
2023/01/24 04:02:55;;;;;;;30.90;17.60;;;;;;;1.24;92.13;100650.48;91196;1267;22342;-74
2023/01/24 04:05:15;;;;;;;32.50;18.60;;;;;;;1.24;92.13;100646.88;90994;1275;100414;-72
2023/01/24 04:07:16;;;;;;;34.70;19.60;;;;;;;1.24;91.68;100646.00;91183;1275;22734;-74
2023/01/24 04:09:17;;;;;;;31.20;19.60;;;;;;;1.24;91.90;100643.75;91125;1267;22141;-75
2023/01/24 04:11:18;;;;;;;;;;;;;;;1.23;92.13;100643.03;90948;1275;100537;-74
2023/01/24 04:13:19;;;;;;;35.10;18.20;;;;;;;1.24;92.09;100638.54;91104;1275;22348;-74
2023/01/24 04:15:23;;;;;;;37.50;19.90;;;;;;;1.23;91.88;100641.98;90983;1276;98381;-74
2023/01/24 04:17:24;;;;;;;35.70;20.60;;;;;;;1.23;92.07;100641.98;90994;1276;98261;-74
2023/01/24 04:19:25;;;;;;;33.60;20.10;;;;;;;1.23;91.95;100644.25;91138;1275;23362;-75
2023/01/24 04:21:26;;;;;;;37.60;19.00;;;;;;;1.23;92.10;100643.38;91012;1275;98375;-75
2023/01/24 04:23:28;;;;;;;;;;;;;;;1.23;92.05;100643.02;91056;1276;98377;-75
2023/01/24 04:25:29;;;;;;;37.80;19.10;;;;;;;1.22;91.80;100642.48;91140;1275;22160;-74
2023/01/24 04:27:31;;;;;;;38.20;20.40;;;;;;;1.22;92.00;100643.70;91016;1267;98626;-75
2023/01/24 04:29:32;;;;;;;32.70;18.90;;;;;;;1.22;91.53;100643.02;90975;1269;99441;-74
2023/01/24 04:31:33;;;;;;;33.10;19.50;;;;;;;1.22;92.01;100639.54;91094;1276;22308;-76
2023/01/24 04:33:34;;;;;;;32.70;18.30;;;;;;;1.22;91.76;100637.13;91087;1266;99053;-75
2023/01/24 04:35:35;;;;;;;43.50;20.60;;;;;;;1.23;92.00;100641.98;91053;1275;100420;-75
2023/01/24 04:37:37;;;;;;;;;;;;;;;1.23;92.05;100643.20;91144;1275;22413;-73
2023/01/24 04:39:38;;;;;;;;;;;;;;;1.22;91.82;100638.50;91088;1270;85773;-74
2023/01/24 04:41:39;;;;;;;35.20;18.50;;;;;;;1.21;91.81;100641.79;91074;1275;85545;-74
2023/01/24 04:43:40;;;;;;;36.00;19.30;;;;;;;1.21;91.95;100644.56;91117;1275;22331;-76
2023/01/24 04:45:41;;;;;;;33.20;20.00;;;;;;;1.21;92.05;100644.55;90996;1275;98313;-76
2023/01/24 04:47:42;;;;;;;39.30;21.10;;;;;;;1.21;91.93;100642.83;91049;1266;99532;-74
2023/01/24 04:49:44;;;;;;;45.10;21.40;;;;;;;1.20;92.11;100645.94;91187;1274;22066;-74
2023/01/24 04:51:48;;;;;;;38.50;20.30;;;;;;;1.20;92.10;100650.60;91060;1275;98411;-74
2023/01/24 04:53:49;;;;;;;41.50;21.50;;;;;;;1.20;91.81;100648.00;91005;1275;99894;-75
2023/01/24 04:55:51;;;;;;;;;;;;;;;1.19;91.74;100651.98;91149;1276;22432;-76
2023/01/24 04:57:52;;;;;;;33.30;17.30;;;;;;;1.18;91.90;100652.48;91058;1275;86426;-75
2023/01/24 04:59:53;;;;;;;44.20;20.10;;;;;;;1.16;91.86;100651.40;91089;1275;98179;-74
2023/01/24 05:01:54;;;;;;;43.90;21.90;;;;;;;1.18;91.96;100656.47;91181;1275;22215;-74
2023/01/24 05:03:58;;;;;;;;;;;;;;;1.17;91.72;100654.89;90994;1275;99711;-73
2023/01/24 05:05:59;;;;;;;39.60;20.60;;;;;;;1.17;91.88;100656.79;91050;1275;83997;-74
2023/01/24 05:08:01;;;;;;;42.70;23.50;;;;;;;1.17;92.02;100656.61;91127;1275;22307;-73
2023/01/24 05:10:02;;;;;;;;;;;;;;;1.17;91.88;100656.09;91001;1268;98733;-73
2023/01/24 05:12:03;;;;;;;39.10;20.80;;;;;;;1.16;91.96;100658.16;91060;1274;22310;-73
2023/01/24 05:14:05;;;;;;;36.40;19.10;;;;;;;1.17;91.86;100663.54;90959;1275;222144;-74
2023/01/24 05:16:06;;;;;;;42.90;21.20;;;;;;;1.14;91.95;100662.80;90859;1276;99816;-74
2023/01/24 05:18:07;;;;;;;40.40;20.90;;;;;;;1.17;92.00;100664.40;91113;1273;22253;-74
2023/01/24 05:20:09;;;;;;;40.00;19.30;;;;;;;1.16;91.93;100664.39;91134;1270;22171;-75
2023/01/24 05:22:10;;;;;;;44.00;22.30;;;;;;;1.17;91.92;100667.00;90913;1275;99534;-73
2023/01/24 05:24:11;;;;;;;44.80;21.40;;;;;;;1.18;92.03;100664.94;91010;1281;22406;-74
2023/01/24 05:26:12;;;;;;;37.40;19.40;;;;;;;1.18;92.04;100666.31;91135;1275;22851;-74
2023/01/24 05:28:13;;;;;;;40.60;19.80;;;;;;;1.17;91.88;100664.06;90968;1275;99185;-74
2023/01/24 05:30:14;;;;;;;;;;;;;;;1.18;92.02;100664.77;91153;1275;22450;-75
2023/01/24 05:32:15;;;;;;;34.30;18.40;;;;;;;1.15;91.87;100667.67;91121;1275;22275;-76
2023/01/24 05:34:17;;;;;;;43.20;19.80;;;;;;;1.16;92.14;100668.89;90949;1275;100019;-74
2023/01/24 05:36:20;;;;;;;50.20;22.70;;;;;;;1.16;92.14;100676.34;91122;1270;22157;-76
2023/01/24 05:38:21;;;;;;;46.50;20.40;;;;;;;1.16;91.96;100672.01;90995;1278;22494;-75
2023/01/24 05:40:23;;;;;;;;;;;;;;;1.16;91.80;100675.14;90971;1275;100872;-75
2023/01/24 05:42:24;;;;;;;34.20;17.00;;;;;;;1.17;92.28;100673.75;91089;1275;22387;-76
2023/01/24 05:44:25;;;;;;;51.90;21.40;;;;;;;1.16;91.78;100672.02;91066;1275;22479;-75
2023/01/24 05:46:28;;;;;;;43.10;20.80;;;;;;;1.17;91.91;100669.94;90986;1268;99468;-75
2023/01/24 05:48:29;;;;;;;60.80;22.50;;;;;;;1.17;92.04;100669.26;91096;1273;22414;-74
2023/01/24 05:50:30;;;;;;;;;;;;;;;1.17;92.04;100672.20;91155;1275;22437;-74
2023/01/24 05:52:31;;;;;;;36.20;18.80;;;;;;;1.16;92.04;100671.48;91041;1266;86034;-75
2023/01/24 05:54:32;;;;;;;41.80;19.70;;;;;;;1.14;92.17;100670.77;91111;1275;22199;-73
2023/01/24 05:56:33;;;;;;;38.10;20.70;;;;;;;1.16;91.97;100674.77;91205;1273;22223;-76
2023/01/24 05:58:38;;;;;;;39.20;19.90;;;;;;;1.16;91.85;100676.86;91109;1274;99359;-73
2023/01/24 06:00:39;;;;;;;38.90;19.50;;;;;;;1.17;92.06;100680.67;91121;1275;22330;-74
2023/01/24 06:02:40;;;;;;;40.00;19.60;;;;;;;1.16;91.98;100678.77;91107;1277;22250;-75
2023/01/24 06:04:42;;;;;;;42.20;19.70;;;;;;;1.17;91.95;100676.35;90973;1277;98438;-75
2023/01/24 06:06:44;;;;;;;42.90;21.20;;;;;;;1.17;92.17;100677.56;91140;1267;22299;-75
2023/01/24 06:08:45;;;;;;;36.30;19.90;;;;;;;1.18;91.96;100677.93;91206;1275;22265;-75
2023/01/24 06:10:46;;;;;;;44.00;19.90;;;;;;;1.18;92.07;100683.13;91022;1267;99309;-74
2023/01/24 06:12:47;;;;;;;38.10;18.60;;;;;;;1.18;92.00;100682.60;91218;1274;22353;-75
2023/01/24 06:14:48;;;;;;;36.20;19.20;;;;;;;1.18;91.94;100686.23;91143;1272;22300;-75
2023/01/24 06:16:49;;;;;;;33.20;18.00;;;;;;;1.17;91.88;100688.83;91035;1275;99634;-75
2023/01/24 06:18:51;;;;;;;35.00;18.40;;;;;;;1.18;92.04;100695.06;91223;1273;25285;-77
2023/01/24 06:20:55;;;;;;;40.80;18.80;;;;;;;1.19;92.07;100697.69;91258;1275;22249;-77
2023/01/24 06:23:10;;;;;;;42.80;19.20;;;;;;;1.19;92.17;100696.98;91008;1276;99356;-75
2023/01/24 06:25:20;;;;;;;38.30;19.60;;;;;;;1.19;92.21;100699.05;91267;1275;22227;-77
2023/01/24 06:27:22;;;;;;;34.40;17.90;;;;;;;1.18;91.88;100700.96;91059;1276;98613;-74
2023/01/24 06:29:23;;;;;;;;;;;;;;;1.18;92.13;100705.11;91056;1277;99293;-74
2023/01/24 06:31:43;;;;;;;45.00;18.40;;;;;;;1.18;92.24;100703.20;91149;1277;22197;-74
2023/01/24 06:34:26;;;;;;;50.40;18.50;;;;;;;1.17;91.93;100707.69;91107;1275;99799;-73
2023/01/24 06:37:12;;;;;;;57.40;20.40;;;;;;;1.17;92.05;100702.48;90844;1283;22174;-74
2023/01/24 06:39:15;;;;;;;51.60;19.10;;;;;;;1.17;91.90;100703.88;90927;1281;22174;-74
2023/01/24 06:41:17;;;;;;;67.20;21.10;;;;;;;1.16;91.89;100706.83;90731;1285;99254;-75
2023/01/24 06:43:18;;;;;;;50.60;21.70;;;;;;;1.17;91.91;100707.70;90831;1283;22198;-73
2023/01/24 06:45:21;;;;;;;;;;;;;;;1.18;92.17;100704.92;90751;1283;98831;-76
2023/01/24 06:47:25;;;;;;;57.90;18.80;;;;;;;1.16;91.98;100712.19;90818;1290;85603;-74
2023/01/24 06:49:25;;;;;;;70.90;18.40;;;;;;;1.17;92.06;100710.45;90845;1283;22281;-74
2023/01/24 06:51:27;;;;;;;119.60;22.60;;;;;;;1.17;91.89;100714.61;90794;1283;98609;-72
2023/01/24 06:53:28;;;;;;;136.80;26.60;;;;;;;1.17;91.93;100715.65;90627;1290;98700;-75
2023/01/24 06:55:29;;;;;;;117.40;22.40;;;;;;;1.17;91.90;100720.32;90806;1286;22313;-74
2023/01/24 06:57:30;;;;;;;134.20;20.90;;;;;;;1.17;91.80;100723.95;90650;1285;99711;-75
2023/01/24 06:59:31;;;;;;;120.40;20.50;;;;;;;1.17;91.96;100725.02;90634;1286;98990;-74
2023/01/24 07:01:32;;;;;;;110.40;19.20;;;;;;;1.17;92.10;100724.98;90974;1283;22278;-75
2023/01/24 07:03:33;;;;;;;119.00;19.90;;;;;;;1.17;92.14;100727.77;90725;1282;99811;-74
2023/01/24 07:05:36;;;;;;;;;;;;;;;1.16;92.10;100728.45;90753;1286;98421;-79
2023/01/24 07:07:38;;;;;;;121.20;18.10;;;;;;;1.16;92.04;100727.75;91076;1283;22365;-75
2023/01/24 07:09:39;;;;;;;132.10;20.20;;;;;;;1.15;92.02;100724.80;91115;1274;98965;-78
2023/01/24 07:11:40;;;;;;;161.60;21.10;;;;;;;1.16;91.95;100729.49;91031;1277;98493;-77
2023/01/24 07:13:41;;;;;;;139.70;22.60;;;;;;;1.16;92.28;100731.56;91159;1275;22379;-77
2023/01/24 07:15:42;;;;;;;184.00;24.20;;;;;;;1.15;92.03;100732.40;91008;1273;99789;-78
2023/01/24 07:17:44;;;;;;;173.10;22.10;;;;;;;1.14;92.06;100732.73;91112;1273;98502;-78
2023/01/24 07:19:45;;;;;;;151.00;20.20;;;;;;;1.12;92.01;100728.91;91193;1275;22203;-80
2023/01/24 07:21:46;;;;;;;;;;;;;;;1.12;91.90;100731.31;91164;1273;101340;-78
2023/01/24 07:23:48;;;;;;;81.60;16.60;;;;;;;1.11;92.10;100737.52;91158;1275;85942;-77
2023/01/24 07:25:50;;;;;;;192.20;20.40;;;;;;;1.11;91.98;100735.28;91157;1276;22277;-78
2023/01/24 07:27:52;;;;;;;92.90;19.00;;;;;;;1.10;92.04;100734.74;91027;1275;99814;-79
2023/01/24 07:29:52;;;;;;;;;;;;;;;1.12;92.15;100737.38;91021;1269;98790;-78
2023/01/24 07:31:53;;;;;;;83.90;17.10;;;;;;;1.12;92.18;100737.55;91257;1273;22941;-79
2023/01/24 07:33:55;;;;;;;115.50;21.80;;;;;;;1.11;92.16;100737.19;91060;1275;98560;-79
2023/01/24 07:35:56;;;;;;;186.40;24.30;;;;;;;1.11;92.04;100738.56;91109;1275;98492;-78
2023/01/24 07:37:57;;;;;;;165.40;26.50;;;;;;;1.11;92.27;100746.02;91130;1276;23468;-79
2023/01/24 07:39:58;;;;;;;114.50;22.30;;;;;;;1.11;92.43;100746.20;91059;1276;98661;-78
2023/01/24 07:41:59;;;;;;;163.60;22.80;;;;;;;1.13;92.02;100749.86;90940;1270;98882;-78
2023/01/24 07:44:04;;;;;;;148.00;25.40;;;;;;;1.12;91.89;100749.33;91136;1275;23216;-78
2023/01/24 07:46:05;;;;;;;120.90;30.70;;;;;;;1.12;92.09;100752.63;90935;1273;100204;-78
2023/01/24 07:48:07;;;;;;;103.50;24.50;;;;;;;1.12;92.20;100750.52;91043;1266;100567;-79
2023/01/24 07:50:09;;;;;;;99.30;23.20;;;;;;;1.12;92.13;100755.91;91139;1275;22287;-78
2023/01/24 07:52:10;;;;;;;118.70;24.90;;;;;;;1.12;92.04;100757.98;90989;1268;98541;-77
2023/01/24 07:54:11;;;;;;;104.60;23.30;;;;;;;1.11;92.27;100755.73;90989;1271;98175;-77
2023/01/24 07:56:14;;;;;;;;;;;;;;;1.13;92.10;100758.52;91132;1276;22409;-77
2023/01/24 07:58:16;;;;;;;112.30;22.60;;;;;;;1.13;92.41;100761.29;90984;1268;86455;-78
2023/01/24 08:00:18;;;;;;;49.50;18.70;;;;;;;1.14;92.01;100762.85;91087;1275;22312;-78
2023/01/24 08:02:18;;;;;;;58.30;21.80;;;;;;;1.14;92.21;100763.04;91141;1275;23279;-78
2023/01/24 08:04:19;;;;;;;103.30;24.20;;;;;;;1.14;92.05;100768.75;90914;1267;99679;-77
2023/01/24 08:06:21;;;;;;;68.10;24.90;;;;;;;1.14;92.05;100769.27;91098;1275;22269;-78
2023/01/24 08:08:22;;;;;;;88.80;25.90;;;;;;;1.15;92.35;100767.38;91201;1274;22080;-79
2023/01/24 08:10:23;;;;;;;71.90;25.80;;;;;;;1.17;92.04;100768.80;91000;1275;98698;-78
2023/01/24 08:12:24;;;;;;;66.30;23.70;;;;;;;1.18;92.20;100771.24;91029;1275;22432;-78
2023/01/24 08:14:25;;;;;;;;;;;;;;;1.18;92.20;100769.70;91107;1276;22488;-78
2023/01/24 08:16:26;;;;;;;50.50;21.50;;;;;;;1.16;92.40;100774.52;91026;1274;85511;-78
2023/01/24 08:18:27;;;;;;;69.60;24.40;;;;;;;1.17;92.09;100771.75;91111;1275;22222;-78
2023/01/24 08:20:29;;;;;;;47.70;22.60;;;;;;;1.17;92.10;100775.38;91029;1277;22303;-79
2023/01/24 08:22:30;;;;;;;61.10;25.90;;;;;;;1.18;92.31;100776.97;90890;1266;98554;-79
2023/01/24 08:24:31;;;;;;;51.60;24.20;;;;;;;1.19;92.35;100777.68;91087;1275;22967;-78
2023/01/24 08:26:32;;;;;;;60.00;26.40;;;;;;;1.20;92.44;100778.55;91107;1275;22274;-79
2023/01/24 08:28:33;;;;;;;58.10;25.50;;;;;;;1.19;92.35;100780.79;90986;1274;99400;-79
2023/01/24 08:30:34;;;;;;;55.70;25.70;;;;;;;1.19;92.36;100783.91;91099;1266;22311;-79
2023/01/24 08:32:37;;;;;;;58.40;22.90;;;;;;;1.20;92.28;100785.31;91207;1275;22269;-79
2023/01/24 08:34:38;;;;;;;61.70;25.50;;;;;;;1.21;92.09;100785.67;90894;1273;99055;-80
2023/01/24 08:36:38;;;;;;;67.10;27.40;;;;;;;1.23;92.33;100790.89;91134;1275;22213;-79
2023/01/24 08:38:39;;;;;;;84.90;26.30;;;;;;;1.23;92.48;100786.74;91122;1275;22940;-80
2023/01/24 08:40:41;;;;;;;63.80;24.70;;;;;;;1.23;91.90;100784.50;90944;1275;99706;-81
2023/01/24 08:42:42;;;;;;;48.00;22.00;;;;;;;1.23;92.23;100790.05;91134;1275;22267;-78
2023/01/24 08:44:43;;;;;;;67.80;24.20;;;;;;;1.24;92.06;100789.20;91121;1275;22249;-79
2023/01/24 08:46:44;;;;;;;54.90;21.00;;;;;;;1.27;92.36;100790.12;90925;1275;112285;-79
2023/01/24 08:48:45;;;;;;;57.50;22.00;;;;;;;1.28;92.49;100791.34;91156;1275;22903;-79
2023/01/24 08:50:46;;;;;;;64.30;21.90;;;;;;;1.29;92.09;100796.21;91121;1275;22259;-78
2023/01/24 08:52:48;;;;;;;69.70;23.40;;;;;;;1.27;92.02;100792.73;90951;1276;99281;-79
2023/01/24 08:54:49;;;;;;;60.40;21.60;;;;;;;1.29;92.48;100797.09;91059;1276;22263;-78
2023/01/24 08:56:50;;;;;;;43.50;19.00;;;;;;;1.30;92.20;100798.13;91087;1271;22262;-80
2023/01/24 08:58:51;;;;;;;61.50;22.60;;;;;;;1.30;92.32;100798.84;91037;1274;99713;-79
2023/01/24 09:00:51;;;;;;;75.60;21.90;;;;;;;1.31;92.42;100797.63;91051;1268;22245;-80
2023/01/24 09:02:53;;;;;;;73.00;21.80;;;;;;;1.29;92.17;100791.72;91056;1275;22503;-80
2023/01/24 09:04:54;;;;;;;;;;;;;;;1.32;92.21;100799.91;90995;1275;99489;-79
2023/01/24 09:06:55;;;;;;;36.30;14.70;;;;;;;1.33;92.29;100801.13;91177;1275;23056;-79
2023/01/24 09:08:56;;;;;;;111.00;26.60;;;;;;;1.33;92.38;100799.05;91191;1274;22327;-79
2023/01/24 09:10:58;;;;;;;84.40;24.20;;;;;;;1.33;92.32;100800.45;90987;1275;99103;-80
2023/01/24 09:13:00;;;;;;;99.30;22.50;;;;;;;1.33;92.13;100804.27;91119;1275;22773;-79
2023/01/24 09:15:02;;;;;;;60.10;21.80;;;;;;;1.34;92.28;100801.86;91164;1269;23035;-79
2023/01/24 09:17:03;;;;;;;109.40;23.60;;;;;;;1.35;92.25;100799.45;90955;1278;98419;-79
2023/01/24 09:19:04;;;;;;;40.40;16.30;;;;;;;1.36;92.21;100803.98;91077;1276;22273;-79
2023/01/24 09:21:05;;;;;;;59.10;19.70;;;;;;;1.36;92.42;100797.73;91146;1275;22327;-80
2023/01/24 09:23:11;;;;;;;130.70;25.70;;;;;;;1.37;91.98;100801.55;90960;1276;100720;-80
2023/01/24 09:25:12;;;;;;;67.70;21.20;;;;;;;1.37;92.20;100800.18;91120;1275;22286;-80
2023/01/24 09:27:13;;;;;;;131.30;25.00;;;;;;;1.39;92.21;100802.11;91179;1267;22389;-80
2023/01/24 09:29:14;;;;;;;108.00;24.10;;;;;;;1.39;92.22;100803.15;90947;1267;98367;-80
2023/01/24 09:31:15;;;;;;;124.40;24.40;;;;;;;1.38;92.15;100798.81;91078;1277;22287;-79
2023/01/24 09:33:17;;;;;;;124.90;24.70;;;;;;;1.39;92.22;100800.73;91090;1275;22287;-80
2023/01/24 09:35:18;;;;;;;106.20;23.60;;;;;;;1.39;92.14;100797.96;90990;1277;111565;-80
2023/01/24 09:37:20;;;;;;;97.80;23.30;;;;;;;1.38;92.43;100798.11;91110;1275;22112;-80
2023/01/24 09:39:21;;;;;;;111.30;23.80;;;;;;;1.39;92.23;100793.96;91147;1274;98673;-80
2023/01/24 09:41:28;;;;;;;69.30;23.20;;;;;;;1.41;92.44;100796.95;91036;1276;98617;-80
2023/01/24 09:43:44;;;;;;;101.40;22.70;;;;;;;1.42;92.30;100797.15;91083;1268;22343;-79
2023/01/24 09:45:53;;;;;;;123.60;27.60;;;;;;;1.43;92.34;100797.01;91095;1268;99648;-80
2023/01/24 09:48:00;;;;;;;98.90;24.30;;;;;;;1.46;92.45;100794.79;91098;1275;99765;-79
2023/01/24 09:50:14;;;;;;;108.90;22.20;;;;;;;1.47;92.55;100791.72;91223;1271;22290;-79
2023/01/24 09:52:25;;;;;;;60.30;19.80;;;;;;;1.49;92.25;100793.64;90953;1271;99676;-79
2023/01/24 09:55:25;;;;;;;120.30;24.60;;;;;;;1.50;92.14;100790.55;91000;1276;22361;-79
2023/01/24 09:57:58;;;;;;;95.30;20.70;;;;;;;1.53;92.35;100791.45;90629;1283;99665;-77
2023/01/24 10:00:17;;;;;;;87.30;22.20;;;;;;;1.53;92.30;100791.46;89923;1291;98333;-80
2023/01/24 10:02:20;;;;;;;73.80;25.40;;;;;;;1.55;92.37;100790.96;89810;1294;22338;-79
2023/01/24 10:04:26;;;;;;;144.80;29.70;;;;;;;1.57;92.38;100793.42;89786;1291;100517;-78
2023/01/24 10:06:29;;;;;;;160.40;28.60;;;;;;;1.59;92.37;100792.94;89951;1292;22774;-80